Time;durP1;ratioP1;P1;durP2;ratioP2;P2;SDS_P1;SDS_P2;PMS_P1;PMS_P2;Temp;Humidity;BMP_temperature;BMP_pressure;BME280_temperature;BME280_humidity;BME280_pressure;Samples;Min_cycle;Max_cycle;Signal;HPM_P1;HPM_P2
2023/07/27 00:01:00;;;;;;;7.20;3.20;;;;;;;15.68;100.00;96123.25;5046931;28;20024;-81
2023/07/27 00:03:26;;;;;;;6.80;3.23;;;;;;;15.87;100.00;96117.28;5070212;28;20426;-82
2023/07/27 00:05:53;;;;;;;9.20;3.70;;;;;;;15.88;100.00;96123.38;5070527;28;20024;-81
2023/07/27 00:08:19;;;;;;;7.47;3.67;;;;;;;15.89;100.00;96114.41;5067545;28;20082;-81
2023/07/27 00:10:44;;;;;;;7.93;3.20;;;;;;;16.03;100.00;96122.25;5070517;28;20024;-82
2023/07/27 00:13:10;;;;;;;5.60;3.13;;;;;;;16.17;100.00;96122.34;5070215;28;20122;-81
2023/07/27 00:15:36;;;;;;;14.97;3.40;;;;;;;16.15;100.00;96116.41;5054618;28;20020;-81
2023/07/27 00:18:01;;;;;;;6.10;3.43;;;;;;;16.00;100.00;96111.22;5074193;28;20050;-81
2023/07/27 00:20:36;;;;;;;11.87;2.90;;;;;;;15.95;100.00;96113.63;5073766;28;20029;-82
2023/07/27 00:23:01;;;;;;;6.30;3.23;;;;;;;15.97;100.00;96116.94;5057616;28;20074;-82
2023/07/27 00:25:27;;;;;;;9.20;3.57;;;;;;;15.85;100.00;96113.16;5048142;28;20797;-81
2023/07/27 00:27:55;;;;;;;7.60;3.13;;;;;;;15.59;100.00;96114.59;5072319;28;20528;-82
2023/07/27 00:30:20;;;;;;;7.87;3.20;;;;;;;15.50;100.00;96110.47;5056879;28;20035;-81
2023/07/27 00:32:46;;;;;;;6.37;3.30;;;;;;;15.64;100.00;96106.91;5055526;28;20016;-83
2023/07/27 00:35:19;;;;;;;7.17;3.33;;;;;;;15.51;100.00;96115.56;5049213;28;20028;-82
2023/07/27 00:37:44;;;;;;;6.50;3.00;;;;;;;15.49;100.00;96107.00;5056822;28;20024;-81
2023/07/27 00:40:11;;;;;;;7.40;3.10;;;;;;;15.40;100.00;96104.69;5073968;28;20039;-81
2023/07/27 00:42:36;;;;;;;5.90;3.03;;;;;;;15.57;100.00;96112.16;5056224;28;20522;-82
2023/07/27 00:45:03;;;;;;;6.10;3.40;;;;;;;15.47;100.00;96110.84;5073603;28;20025;-81
2023/07/27 00:47:29;;;;;;;7.77;3.40;;;;;;;15.47;100.00;96100.25;5073650;28;20383;-81
2023/07/27 00:49:54;;;;;;;7.80;3.47;;;;;;;15.49;100.00;96108.81;5056827;28;20165;-81
2023/07/27 00:52:21;;;;;;;8.13;4.07;;;;;;;15.29;100.00;96101.56;5071106;28;20471;-81
2023/07/27 00:54:47;;;;;;;5.77;2.87;;;;;;;15.15;100.00;96094.50;5074979;28;20059;-81
2023/07/27 00:57:12;;;;;;;5.00;3.03;;;;;;;15.23;100.00;96102.31;5071175;28;20044;-81
2023/07/27 00:59:52;;;;;;;5.03;2.87;;;;;;;15.51;100.00;96098.84;5073574;28;20027;-81
2023/07/27 01:02:18;;;;;;;5.73;3.13;;;;;;;15.59;100.00;96090.75;5046954;28;20025;-81
2023/07/27 01:04:44;;;;;;;4.97;3.10;;;;;;;15.63;100.00;96089.38;5066497;28;20520;-81
2023/07/27 01:07:09;;;;;;;7.07;3.30;;;;;;;15.59;100.00;96088.09;5065153;28;20027;-81
2023/07/27 01:09:35;;;;;;;5.40;2.87;;;;;;;15.51;100.00;96088.25;5049043;28;20044;-81
2023/07/27 01:12:16;;;;;;;7.27;3.00;;;;;;;15.53;100.00;96087.06;5067961;28;20012;-81
2023/07/27 01:14:42;;;;;;;5.43;2.63;;;;;;;15.26;100.00;96087.88;5062355;28;20474;-81
2023/07/27 01:17:18;;;;;;;7.27;3.47;;;;;;;15.38;100.00;96081.03;5047821;28;20040;-81
2023/07/27 01:19:59;;;;;;;5.20;2.67;;;;;;;15.24;100.00;96074.81;5048248;28;20063;-81
2023/07/27 01:22:31;;;;;;;6.73;3.10;;;;;;;15.21;100.00;96077.03;5057645;28;20048;-81
2023/07/27 01:25:19;;;;;;;6.00;2.80;;;;;;;15.16;100.00;96072.31;5068146;28;20736;-82
2023/07/27 01:27:48;;;;;;;6.37;2.90;;;;;;;15.29;100.00;96067.13;5061277;28;20021;-81
2023/07/27 01:30:39;;;;;;;7.30;4.00;;;;;;;15.15;100.00;96056.59;5064967;28;20037;-81
2023/07/27 01:33:09;;;;;;;6.40;3.27;;;;;;;15.08;100.00;96053.91;5055957;28;20134;-82
2023/07/27 01:35:53;;;;;;;8.17;2.90;;;;;;;15.28;100.00;96049.56;5072385;28;20032;-81
2023/07/27 01:38:21;;;;;;;6.07;3.17;;;;;;;15.19;100.00;96053.38;5055676;28;20548;-81
2023/07/27 01:40:48;;;;;;;7.07;3.60;;;;;;;15.10;100.00;96051.88;5066660;28;20620;-82
2023/07/27 01:43:15;;;;;;;5.03;3.00;;;;;;;14.91;100.00;96049.88;5073416;28;20130;-82
2023/07/27 01:45:41;;;;;;;5.40;3.10;;;;;;;15.18;100.00;96043.78;5055746;28;20021;-81
2023/07/27 01:48:08;;;;;;;7.47;3.20;;;;;;;15.16;100.00;96045.00;5067625;28;20032;-81
2023/07/27 01:50:35;;;;;;;7.97;3.97;;;;;;;15.32;100.00;96037.59;5068678;28;20697;-81
2023/07/27 01:53:02;;;;;;;5.37;3.03;;;;;;;15.12;100.00;96038.44;5068539;28;20020;-81
2023/07/27 01:55:29;;;;;;;7.10;2.93;;;;;;;15.08;100.00;96038.00;5062761;28;20483;-82
2023/07/27 01:57:59;;;;;;;7.07;3.10;;;;;;;15.03;100.00;96041.25;5066083;28;20020;-82
2023/07/27 02:00:27;;;;;;;5.50;3.10;;;;;;;15.02;100.00;96028.16;5070177;28;20074;-81
2023/07/27 02:02:54;;;;;;;7.67;3.37;;;;;;;14.96;100.00;96023.66;5055725;28;20025;-81
2023/07/27 02:05:21;;;;;;;7.37;3.43;;;;;;;15.11;100.00;96028.88;5072228;28;20111;-81
2023/07/27 02:07:47;;;;;;;6.50;3.50;;;;;;;15.10;100.00;96028.03;5054947;28;20056;-81
2023/07/27 02:10:17;;;;;;;6.80;3.30;;;;;;;15.02;100.00;96018.41;5055094;28;20074;-82
2023/07/27 02:12:47;;;;;;;5.83;3.03;;;;;;;15.00;100.00;96023.09;5055195;28;20068;-81
2023/07/27 02:15:22;;;;;;;8.87;3.60;;;;;;;15.04;100.00;96012.91;5064942;28;20498;-81
2023/07/27 02:17:58;;;;;;;5.73;2.80;;;;;;;15.25;100.00;96012.84;5062944;28;20031;-80
2023/07/27 02:20:28;;;;;;;7.63;3.17;;;;;;;15.30;100.00;96010.47;5054640;28;20024;-82
2023/07/27 02:22:56;;;;;;;6.27;3.07;;;;;;;15.17;100.00;96005.06;5054867;28;20067;-82
2023/07/27 02:25:23;;;;;;;6.93;2.97;;;;;;;15.14;100.00;96002.81;5062288;28;20394;-82
2023/07/27 02:27:48;;;;;;;7.07;3.27;;;;;;;15.22;100.00;95994.69;5055861;28;20620;-81
2023/07/27 02:30:15;;;;;;;6.10;3.00;;;;;;;15.22;100.00;95988.59;5054221;28;20013;-81
2023/07/27 02:32:40;;;;;;;6.60;3.50;;;;;;;15.47;100.00;95995.06;5066122;28;20074;-82
2023/07/27 02:35:21;;;;;;;5.47;2.70;;;;;;;15.49;100.00;95994.84;5057786;28;20054;-81
2023/07/27 02:37:51;;;;;;;4.60;2.57;;;;;;;15.37;100.00;95991.13;5055999;28;20016;-81
2023/07/27 02:40:20;;;;;;;5.73;3.60;;;;;;;15.23;100.00;95991.06;5055732;28;20021;-81
2023/07/27 02:42:47;;;;;;;6.90;3.17;;;;;;;15.06;100.00;95987.06;5055560;28;20020;-81
2023/07/27 02:45:14;;;;;;;9.67;3.10;;;;;;;15.29;100.00;95979.69;5043660;28;20028;-81
2023/07/27 02:47:40;;;;;;;5.80;3.17;;;;;;;15.30;100.00;95980.50;5045588;28;20253;-81
2023/07/27 02:50:06;;;;;;;6.20;3.07;;;;;;;15.32;100.00;95983.75;5047906;28;20020;-81
2023/07/27 02:52:44;;;;;;;5.30;2.80;;;;;;;15.27;100.00;95984.34;5051677;28;20051;-81
2023/07/27 02:55:11;;;;;;;5.10;2.97;;;;;;;15.13;100.00;95982.63;5042716;28;20028;-81
2023/07/27 02:57:36;;;;;;;5.77;2.57;;;;;;;15.01;100.00;95976.22;5051861;28;20031;-81
2023/07/27 03:00:03;;;;;;;5.83;3.00;;;;;;;15.11;100.00;95979.34;5052396;28;20024;-81
2023/07/27 03:02:34;;;;;;;5.50;3.10;;;;;;;15.22;100.00;95986.75;5051592;28;20028;-81
2023/07/27 03:05:04;;;;;;;7.77;2.93;;;;;;;15.13;100.00;95982.63;5059461;28;20021;-81
2023/07/27 03:07:30;;;;;;;5.63;3.00;;;;;;;15.06;100.00;95982.59;5070737;28;20116;-81
2023/07/27 03:09:56;;;;;;;5.87;2.47;;;;;;;14.92;100.00;95980.03;5046110;28;20103;-81
2023/07/27 03:12:22;;;;;;;7.43;2.77;;;;;;;14.99;100.00;95986.19;5053704;28;20036;-82
2023/07/27 03:14:49;;;;;;;4.20;2.70;;;;;;;14.85;100.00;95990.56;5055428;28;20021;-82
2023/07/27 03:17:28;;;;;;;7.33;3.37;;;;;;;14.80;100.00;95983.22;5054706;28;20478;-81
2023/07/27 03:19:56;;;;;;;5.33;2.93;;;;;;;14.63;100.00;95981.84;5054968;28;20842;-81
2023/07/27 03:22:21;;;;;;;4.97;2.60;;;;;;;14.83;100.00;95980.19;5071344;28;20028;-81
2023/07/27 03:24:47;;;;;;;4.67;2.67;;;;;;;14.79;100.00;95986.88;5051295;28;20035;-81
2023/07/27 03:27:12;;;;;;;5.40;2.73;;;;;;;14.60;100.00;95985.69;5054580;28;20059;-81
2023/07/27 03:29:39;;;;;;;8.03;2.93;;;;;;;14.76;100.00;95987.25;5054350;28;20025;-81
2023/07/27 03:32:05;;;;;;;6.07;2.87;;;;;;;14.75;100.00;95976.84;5071152;28;20512;-82
2023/07/27 03:34:31;;;;;;;6.33;3.20;;;;;;;14.83;100.00;95979.38;5072690;28;20031;-81
2023/07/27 03:36:56;;;;;;;6.30;2.97;;;;;;;14.98;100.00;95984.56;5055781;28;20383;-81
2023/07/27 03:39:22;;;;;;;5.43;2.80;;;;;;;14.97;100.00;95980.28;5055258;28;20028;-81
2023/07/27 03:41:53;;;;;;;6.37;2.83;;;;;;;15.09;100.00;95971.63;5059323;28;20475;-81
2023/07/27 03:44:18;;;;;;;7.50;2.87;;;;;;;15.11;100.00;95979.34;5070696;28;20030;-81
2023/07/27 03:46:44;;;;;;;8.27;2.63;;;;;;;15.36;100.00;95970.94;5053887;28;20028;-82
2023/07/27 03:49:09;;;;;;;5.83;3.07;;;;;;;15.23;100.00;95975.16;5071398;28;20021;-81
2023/07/27 03:51:35;;;;;;;7.13;2.73;;;;;;;15.17;100.00;95970.63;5045581;28;20031;-81
2023/07/27 03:54:02;;;;;;;5.40;2.90;;;;;;;15.29;100.00;95974.38;5071609;28;20521;-79
2023/07/27 03:56:36;;;;;;;6.00;2.60;;;;;;;15.40;100.00;95974.84;5055646;28;20044;-79
2023/07/27 03:59:01;;;;;;;7.37;2.93;;;;;;;15.50;100.00;95978.78;5071131;28;20438;-79
2023/07/27 04:01:27;;;;;;;8.57;3.40;;;;;;;15.41;100.00;95976.47;5063743;28;20431;-79
2023/07/27 04:03:52;;;;;;;7.40;2.80;;;;;;;15.56;100.00;95972.69;5072041;28;20078;-78
2023/07/27 04:06:18;;;;;;;5.77;3.10;;;;;;;15.67;100.00;95974.00;5062212;28;20029;-81
2023/07/27 04:08:43;;;;;;;6.07;2.80;;;;;;;15.90;100.00;95968.38;5071878;28;20055;-82
2023/07/27 04:11:09;;;;;;;8.27;2.83;;;;;;;15.76;100.00;95971.97;5056034;28;20028;-81
2023/07/27 04:13:37;;;;;;;4.90;2.40;;;;;;;15.74;100.00;95963.41;5059296;28;20024;-81
2023/07/27 04:16:04;;;;;;;7.20;3.17;;;;;;;15.75;100.00;95965.84;5058445;28;20024;-81
2023/07/27 04:18:29;;;;;;;5.27;2.90;;;;;;;15.71;100.00;95955.84;5073658;28;20478;-82
2023/07/27 04:20:55;;;;;;;6.73;2.73;;;;;;;15.80;100.00;95957.34;5071878;28;20028;-82
2023/07/27 04:23:33;;;;;;;6.73;2.70;;;;;;;16.08;100.00;95951.09;5046118;28;20028;-81
2023/07/27 04:26:01;;;;;;;6.50;3.20;;;;;;;15.77;100.00;95957.72;5056596;28;20032;-81
2023/07/27 04:28:27;;;;;;;6.13;2.70;;;;;;;15.68;100.00;95954.41;5050722;28;20052;-81
2023/07/27 04:30:58;;;;;;;6.07;2.87;;;;;;;15.66;100.00;95944.97;5050280;28;20055;-83
2023/07/27 04:33:24;;;;;;;4.97;2.23;;;;;;;15.82;100.00;95952.63;5072900;28;20821;-83
2023/07/27 04:35:49;;;;;;;5.27;2.87;;;;;;;15.88;100.00;95941.22;5047788;28;20029;-83
2023/07/27 04:38:15;;;;;;;5.60;2.57;;;;;;;16.12;100.00;95936.41;5072826;28;20028;-83
2023/07/27 04:40:41;;;;;;;5.27;2.83;;;;;;;16.15;100.00;95939.47;5071227;28;20035;-83
2023/07/27 04:43:06;;;;;;;6.03;3.27;;;;;;;16.48;100.00;95939.50;5070907;28;20040;-83
2023/07/27 04:45:32;;;;;;;5.77;2.87;;;;;;;16.55;100.00;95944.00;5072515;28;20474;-83
2023/07/27 04:47:57;;;;;;;9.67;2.87;;;;;;;16.40;100.00;95941.56;5062581;28;20034;-83
2023/07/27 04:50:29;;;;;;;6.53;3.23;;;;;;;16.46;100.00;95935.41;5056821;28;20032;-83
2023/07/27 04:53:01;;;;;;;5.40;2.67;;;;;;;16.54;100.00;95937.88;5059262;28;20027;-83
2023/07/27 04:55:26;;;;;;;5.63;2.73;;;;;;;16.65;100.00;95936.47;5053450;28;20182;-83
2023/07/27 04:57:52;;;;;;;5.43;2.27;;;;;;;17.08;100.00;95934.19;5072360;28;20103;-83
2023/07/27 05:00:18;;;;;;;3.80;2.37;;;;;;;16.85;100.00;95923.19;5071261;28;20044;-83
2023/07/27 05:02:44;;;;;;;5.10;2.50;;;;;;;16.90;100.00;95932.19;5056502;28;20056;-83
2023/07/27 05:05:09;;;;;;;5.73;2.60;;;;;;;17.24;100.00;95927.63;5054762;28;20031;-83
2023/07/27 05:07:35;;;;;;;7.77;2.57;;;;;;;17.30;100.00;95921.47;5058254;28;20043;-83
2023/07/27 05:10:10;;;;;;;8.27;2.93;;;;;;;17.17;100.00;95924.19;5074646;28;20115;-83
2023/07/27 05:12:35;;;;;;;4.27;2.53;;;;;;;17.38;100.00;95915.13;5070495;28;20016;-83
2023/07/27 05:15:01;;;;;;;6.40;3.20;;;;;;;17.16;100.00;95910.06;5054443;28;20482;-83
2023/07/27 05:17:26;;;;;;;4.40;2.17;;;;;;;17.31;100.00;95901.84;5061684;28;20082;-83
2023/07/27 05:19:55;;;;;;;5.93;2.77;;;;;;;17.46;100.00;95901.59;5037543;28;20096;-83
2023/07/27 05:22:20;;;;;;;5.40;2.47;;;;;;;17.39;100.00;95898.13;5056336;28;20025;-84
2023/07/27 05:25:08;;;;;;;5.67;2.93;;;;;;;17.61;100.00;95910.13;5072929;28;20032;-83
2023/07/27 05:27:33;;;;;;;6.37;2.57;;;;;;;17.44;100.00;95904.47;5069769;28;20076;-82
2023/07/27 05:29:59;;;;;;;5.47;2.10;;;;;;;17.74;100.00;95895.97;5055995;28;20033;-83
2023/07/27 05:32:24;;;;;;;6.13;2.20;;;;;;;17.60;100.00;95897.84;5057507;28;20467;-83
2023/07/27 05:34:51;;;;;;;5.93;2.63;;;;;;;17.95;100.00;95900.16;5056399;28;20480;-87
2023/07/27 05:37:17;;;;;;;5.90;2.63;;;;;;;17.99;100.00;95893.38;5054364;28;20394;-84
2023/07/27 05:39:42;;;;;;;5.50;2.60;;;;;;;17.79;100.00;95892.69;5073404;28;20028;-84
2023/07/27 05:42:08;;;;;;;8.03;2.37;;;;;;;18.10;100.00;95894.53;5075165;28;20029;-83
2023/07/27 05:44:34;;;;;;;5.80;2.00;;;;;;;18.23;100.00;95899.78;5073577;28;20028;-85
2023/07/27 05:47:03;;;;;;;8.83;2.43;;;;;;;18.23;100.00;95899.78;5070075;28;20078;-83
2023/07/27 05:49:28;;;;;;;4.53;2.27;;;;;;;18.53;100.00;95885.84;5065469;28;20028;-84
2023/07/27 05:51:54;;;;;;;6.43;3.00;;;;;;;18.70;100.00;95888.78;5069463;28;20589;-83
2023/07/27 05:54:20;;;;;;;5.97;2.40;;;;;;;19.13;100.00;95890.66;5064238;28;20028;-81
2023/07/27 05:56:46;;;;;;;4.10;2.00;;;;;;;19.27;100.00;95889.47;5056269;28;20032;-83
2023/07/27 05:59:12;;;;;;;7.63;2.70;;;;;;;19.11;100.00;95890.03;5054369;28;20028;-83
2023/07/27 06:01:45;;;;;;;5.03;2.33;;;;;;;19.34;100.00;95890.19;5071044;28;20036;-83
2023/07/27 06:04:11;;;;;;;4.78;2.33;;;;;;;19.37;100.00;95888.94;5063251;28;20025;-83
2023/07/27 06:06:54;;;;;;;6.20;2.70;;;;;;;19.65;100.00;95889.25;5062718;28;20053;-82
2023/07/27 06:09:20;;;;;;;4.85;1.83;;;;;;;19.82;100.00;95891.28;5070035;28;20071;-83
2023/07/27 06:11:45;;;;;;;7.88;2.00;;;;;;;19.99;100.00;95890.44;5067025;28;20108;-83
2023/07/27 06:14:11;;;;;;;2.95;1.80;;;;;;;20.29;100.00;95894.97;5056215;28;20429;-83
2023/07/27 06:16:36;;;;;;;5.63;2.50;;;;;;;19.85;100.00;95891.69;5071245;28;20012;-83
2023/07/27 06:19:02;;;;;;;5.15;1.98;;;;;;;19.91;100.00;95896.09;5053555;28;20028;-83
2023/07/27 06:21:28;;;;;;;5.72;1.92;;;;;;;20.62;100.00;95898.97;5043675;28;20016;-83
2023/07/27 06:23:53;;;;;;;3.83;1.85;;;;;;;20.34;100.00;95897.75;5055887;28;20024;-83
2023/07/27 06:26:19;;;;;;;5.55;2.17;;;;;;;20.10;100.00;95896.06;5070543;28;20020;-83
2023/07/27 06:28:44;;;;;;;4.80;1.70;;;;;;;20.24;100.00;95892.16;5069022;28;20036;-83
2023/07/27 06:31:21;;;;;;;6.32;2.30;;;;;;;20.44;100.00;95895.31;5066418;28;20029;-82
2023/07/27 06:33:46;;;;;;;5.15;2.13;;;;;;;19.94;100.00;95900.97;5051047;28;20017;-83
2023/07/27 06:36:12;;;;;;;5.75;2.38;;;;;;;20.39;100.00;95902.41;5048886;28;20174;-83
2023/07/27 06:38:38;;;;;;;6.72;2.28;;;;;;;20.31;100.00;95894.72;5055140;28;20017;-83
2023/07/27 06:41:04;;;;;;;5.55;2.47;;;;;;;20.59;100.00;95897.59;5068310;28;20020;-82
2023/07/27 06:43:34;;;;;;;6.03;2.35;;;;;;;20.24;100.00;95905.50;5054796;28;20487;-81
2023/07/27 06:46:00;;;;;;;7.22;2.20;;;;;;;20.20;100.00;95893.66;5051705;28;20029;-82
2023/07/27 06:48:38;;;;;;;5.35;2.45;;;;;;;20.55;100.00;95895.59;5055310;28;20035;-81
2023/07/27 06:51:03;;;;;;;4.25;1.73;;;;;;;20.51;100.00;95894.44;5052430;28;20547;-82
2023/07/27 06:53:29;;;;;;;6.47;2.05;;;;;;;20.63;100.00;95888.06;5058535;28;20021;-84
2023/07/27 06:55:55;;;;;;;4.38;1.70;;;;;;;20.77;100.00;95893.19;5067810;28;20069;-84
2023/07/27 06:58:21;;;;;;;5.85;2.45;;;;;;;21.10;100.00;95892.63;5069897;28;20024;-82
2023/07/27 07:00:46;;;;;;;4.53;2.08;;;;;;;20.89;100.00;95888.66;5061730;28;20024;-82
2023/07/27 07:03:12;;;;;;;6.38;2.78;;;;;;;20.61;100.00;95889.34;5065385;28;20083;-82
2023/07/27 07:05:48;;;;;;;3.70;1.90;;;;;;;20.42;100.00;95881.41;5054507;28;20075;-82
2023/07/27 07:08:13;;;;;;;4.40;2.20;;;;;;;20.49;100.00;95882.09;5067543;28;20102;-82
2023/07/27 07:10:39;;;;;;;5.57;2.45;;;;;;;20.56;100.00;95873.22;5063132;28;20028;-81
2023/07/27 07:13:04;;;;;;;6.10;2.08;;;;;;;20.70;100.00;95872.75;5045075;28;20023;-82
2023/07/27 07:15:34;;;;;;;6.15;1.95;;;;;;;21.07;100.00;95869.03;5057562;28;20453;-82
2023/07/27 07:18:03;;;;;;;7.82;1.85;;;;;;;20.73;100.00;95871.47;5065843;28;20020;-82
2023/07/27 07:20:30;;;;;;;4.75;2.03;;;;;;;20.95;100.00;95869.81;5078355;28;20040;-81
2023/07/27 07:22:55;;;;;;;4.28;1.90;;;;;;;21.29;100.00;95866.53;5074505;28;20024;-81
2023/07/27 07:26:01;;;;;;;3.65;1.80;;;;;;;21.61;100.00;95864.28;5046189;28;20037;-81
2023/07/27 07:28:29;;;;;;;4.20;2.28;;;;;;;21.65;100.00;95863.56;5052450;28;20028;-81
2023/07/27 07:30:55;;;;;;;4.47;1.90;;;;;;;21.46;100.00;95863.97;5052005;28;20025;-81
2023/07/27 07:33:20;;;;;;;5.22;1.92;;;;;;;21.25;100.00;95857.34;5048801;28;20040;-81
2023/07/27 07:35:46;;;;;;;6.72;1.88;;;;;;;21.49;100.00;95863.50;5071201;28;20025;-82
2023/07/27 07:38:12;;;;;;;4.57;1.80;;;;;;;21.68;100.00;95856.94;5073497;28;20021;-81
2023/07/27 07:40:37;;;;;;;4.80;2.08;;;;;;;21.38;100.00;95852.59;5055655;28;20367;-81
2023/07/27 07:43:03;;;;;;;4.72;2.03;;;;;;;22.14;100.00;95849.75;5065262;28;20094;-82
2023/07/27 07:45:28;;;;;;;5.75;1.95;;;;;;;22.11;100.00;95845.69;5061565;28;20035;-82
2023/07/27 07:47:54;;;;;;;4.25;2.33;;;;;;;22.01;100.00;95842.81;5059493;28;20033;-81
2023/07/27 07:50:19;;;;;;;4.88;2.00;;;;;;;21.70;100.00;95840.66;5069039;28;20024;-81
2023/07/27 07:52:45;;;;;;;6.18;1.90;;;;;;;22.04;100.00;95833.50;5061002;28;20042;-82
2023/07/27 07:55:10;;;;;;;3.10;1.85;;;;;;;21.99;100.00;95839.56;5064002;28;20017;-82
2023/07/27 07:57:41;;;;;;;4.55;2.10;;;;;;;22.38;100.00;95836.25;5053633;28;20017;-81
2023/07/27 08:00:09;;;;;;;6.05;1.90;;;;;;;22.42;100.00;95840.06;5068518;28;20024;-81
2023/07/27 08:02:41;;;;;;;4.72;1.85;;;;;;;22.44;100.00;95837.94;5066143;28;20517;-82
2023/07/27 08:05:06;;;;;;;4.97;1.98;;;;;;;22.62;100.00;95823.47;5053902;28;20048;-82
2023/07/27 08:07:32;;;;;;;6.55;1.90;;;;;;;22.72;100.00;95824.44;5052837;28;20039;-82
2023/07/27 08:09:58;;;;;;;6.53;1.73;;;;;;;22.63;100.00;95820.53;5072540;28;20391;-82
2023/07/27 08:12:24;;;;;;;7.85;2.15;;;;;;;22.32;100.00;95827.28;5063501;28;20394;-82
2023/07/27 08:14:50;;;;;;;3.78;1.95;;;;;;;22.91;100.00;95825.00;5055240;28;20020;-82
2023/07/27 08:17:15;;;;;;;2.95;1.35;;;;;;;22.86;100.00;95819.53;5063459;28;20036;-82
2023/07/27 08:19:41;;;;;;;6.47;1.83;;;;;;;22.62;100.00;95808.22;5072269;28;20640;-83
2023/07/27 08:22:10;;;;;;;4.88;1.65;;;;;;;22.61;100.00;95817.31;5055828;28;20475;-82
2023/07/27 08:24:36;;;;;;;6.25;2.22;;;;;;;23.11;99.18;95805.72;5065179;28;20508;-81
2023/07/27 08:27:04;;;;;;;3.55;1.70;;;;;;;22.91;98.60;95810.78;5054389;28;20025;-82
2023/07/27 08:29:35;;;;;;;4.82;1.60;;;;;;;22.80;100.00;95807.13;5045323;28;20021;-82
2023/07/27 08:32:01;;;;;;;4.68;2.13;;;;;;;22.92;97.05;95807.03;5073538;28;20032;-83
2023/07/27 08:34:27;;;;;;;4.07;1.98;;;;;;;22.86;99.55;95802.66;5077629;28;20028;-82
2023/07/27 08:36:52;;;;;;;4.47;1.50;;;;;;;23.33;97.77;95794.97;5053491;28;20024;-84
2023/07/27 08:39:19;;;;;;;5.40;1.90;;;;;;;23.71;100.00;95799.47;5079293;28;20029;-83
2023/07/27 08:41:46;;;;;;;3.65;1.88;;;;;;;23.67;100.00;95800.97;5059724;28;20024;-83
2023/07/27 08:44:13;;;;;;;3.25;1.70;;;;;;;23.74;92.18;95790.91;5078258;28;20021;-83
2023/07/27 08:46:41;;;;;;;6.40;1.85;;;;;;;24.00;99.47;95801.88;5063286;28;20035;-83
2023/07/27 08:49:09;;;;;;;7.65;2.05;;;;;;;23.88;98.10;95801.25;5073580;28;20047;-83
2023/07/27 08:51:36;;;;;;;3.65;2.20;;;;;;;23.41;100.00;95799.91;5063813;28;20029;-83
2023/07/27 08:54:02;;;;;;;7.78;2.67;;;;;;;23.29;99.25;95796.53;5059897;28;20024;-82
2023/07/27 08:56:28;;;;;;;6.30;2.95;;;;;;;23.88;96.26;95793.19;5080800;28;20031;-82
2023/07/27 08:58:54;;;;;;;7.00;2.40;;;;;;;23.71;97.51;95796.78;5061718;28;20791;-85
2023/07/27 09:01:31;;;;;;;5.18;2.33;;;;;;;23.36;100.00;95797.16;5079626;28;20032;-85
2023/07/27 09:03:57;;;;;;;4.68;1.90;;;;;;;23.60;90.86;95789.63;5065114;28;20074;-84
2023/07/27 09:06:45;;;;;;;6.30;2.22;;;;;;;23.58;93.09;95799.81;5051803;28;20029;-83
2023/07/27 09:09:25;;;;;;;4.40;1.90;;;;;;;23.52;91.10;95809.69;5070413;28;20020;-84
2023/07/27 09:11:54;;;;;;;3.75;1.70;;;;;;;22.82;96.33;95803.13;5050696;28;20674;-81
2023/07/27 09:14:20;;;;;;;4.38;1.88;;;;;;;23.16;95.19;95805.75;5072234;28;20025;-83
2023/07/27 09:16:47;;;;;;;4.47;1.75;;;;;;;23.39;95.49;95801.22;5071228;28;20398;-82
2023/07/27 09:19:12;;;;;;;4.13;1.75;;;;;;;23.03;96.71;95798.88;5075303;28;20020;-82
2023/07/27 09:21:46;;;;;;;3.85;1.60;;;;;;;22.52;97.01;95808.06;5077670;28;20028;-82
2023/07/27 09:24:13;;;;;;;3.55;1.77;;;;;;;22.75;98.33;95801.69;5081397;28;20745;-78
2023/07/27 09:27:02;;;;;;;3.70;1.85;;;;;;;22.69;99.61;95797.31;5074333;28;20098;-82
2023/07/27 09:29:28;;;;;;;6.75;2.30;;;;;;;22.42;100.00;95797.19;5072324;28;20596;-81
2023/07/27 09:31:58;;;;;;;3.90;1.70;;;;;;;22.79;98.13;95792.91;5054616;28;20554;-82
2023/07/27 09:34:29;;;;;;;4.07;1.85;;;;;;;22.88;98.30;95801.34;5058962;28;20029;-83
2023/07/27 09:36:56;;;;;;;4.53;1.75;;;;;;;22.78;99.49;95795.84;5064587;28;20441;-79
2023/07/27 09:39:25;;;;;;;3.13;1.58;;;;;;;23.18;98.78;95795.59;5078132;28;20024;-83
2023/07/27 09:41:51;;;;;;;4.35;1.75;;;;;;;23.40;98.45;95802.81;5078310;28;20024;-83
2023/07/27 09:44:22;;;;;;;3.83;2.08;;;;;;;23.16;100.00;95804.94;5057963;28;20371;-84
2023/07/27 09:46:49;;;;;;;5.45;1.90;;;;;;;23.18;98.46;95809.00;5065686;28;20021;-83
2023/07/27 09:49:15;;;;;;;8.57;1.65;;;;;;;23.62;99.01;95809.00;5059553;28;20123;-86
2023/07/27 09:51:41;;;;;;;3.72;1.73;;;;;;;23.33;97.96;95799.53;5061135;28;20024;-84
2023/07/27 09:54:07;;;;;;;4.90;1.45;;;;;;;23.06;100.00;95797.59;5053794;28;20079;-82
2023/07/27 09:56:33;;;;;;;3.67;1.48;;;;;;;22.77;100.00;95804.91;5056224;28;20024;-82
2023/07/27 09:59:00;;;;;;;4.50;1.30;;;;;;;22.21;100.00;95806.78;5074871;28;20351;-82
2023/07/27 10:01:26;;;;;;;5.15;1.40;;;;;;;22.24;100.00;95812.44;5072935;28;20087;-82
2023/07/27 10:03:59;;;;;;;3.85;1.60;;;;;;;22.33;100.00;95804.81;5072242;28;20028;-82
2023/07/27 10:06:26;;;;;;;3.80;1.30;;;;;;;22.33;100.00;95810.16;5046059;28;20024;-82
2023/07/27 10:08:53;;;;;;;3.83;1.30;;;;;;;22.63;100.00;95804.47;5064099;28;20036;-82
2023/07/27 10:11:28;;;;;;;9.05;1.50;;;;;;;22.30;100.00;95795.41;5055676;28;20406;-82
2023/07/27 10:13:56;;;;;;;2.83;1.42;;;;;;;23.14;100.00;95794.47;5061717;28;20492;-83
2023/07/27 10:16:29;;;;;;;4.18;1.65;;;;;;;23.21;100.00;95792.41;5066606;28;20129;-82
2023/07/27 10:18:55;;;;;;;4.78;2.00;;;;;;;23.33;100.00;95788.78;5072680;28;20028;-83
2023/07/27 10:21:21;;;;;;;2.55;1.33;;;;;;;23.62;100.00;95779.47;5055906;28;20052;-83
2023/07/27 10:24:06;;;;;;;2.60;1.15;;;;;;;23.65;98.22;95776.28;5077912;28;20047;-83
2023/07/27 10:27:03;;;;;;;3.15;1.30;;;;;;;24.11;99.45;95792.03;5079072;28;20024;-83
2023/07/27 10:29:29;;;;;;;2.50;1.20;;;;;;;23.54;100.00;95785.28;5049105;28;20024;-83
2023/07/27 10:32:07;;;;;;;3.50;1.42;;;;;;;22.73;100.00;95777.81;5071190;28;20021;-82
2023/07/27 10:34:37;;;;;;;2.35;1.30;;;;;;;22.90;100.00;95783.13;5071600;28;20029;-80
2023/07/27 10:37:04;;;;;;;2.53;1.30;;;;;;;23.40;100.00;95786.72;5072255;28;20086;-80
2023/07/27 10:39:31;;;;;;;4.07;1.65;;;;;;;23.93;99.15;95779.78;5069303;28;20032;-80
2023/07/27 10:42:05;;;;;;;3.25;1.40;;;;;;;23.76;100.00;95780.69;5050038;28;20060;-80
2023/07/27 10:44:57;;;;;;;3.65;1.30;;;;;;;23.99;100.00;95789.53;5050760;28;20028;-81
2023/07/27 10:47:38;;;;;;;3.22;1.50;;;;;;;23.20;100.00;95776.56;5052728;28;20035;-80
2023/07/27 10:50:04;;;;;;;9.43;2.03;;;;;;;22.62;100.00;95770.69;5068666;28;20024;-79
2023/07/27 10:52:37;;;;;;;2.05;1.30;;;;;;;22.66;100.00;95777.16;5071734;28;20028;-80
2023/07/27 10:55:10;;;;;;;4.27;1.40;;;;;;;22.77;100.00;95762.88;5057882;28;20094;-80
2023/07/27 10:57:36;;;;;;;2.70;1.52;;;;;;;22.85;100.00;95766.19;5061827;28;20454;-80
2023/07/27 11:00:04;;;;;;;6.40;2.28;;;;;;;22.89;100.00;95762.75;5066427;28;20031;-80
2023/07/27 11:02:33;;;;;;;3.08;1.30;;;;;;;21.83;100.00;95768.06;5061744;28;20021;-80
2023/07/27 11:05:05;;;;;;;2.80;1.38;;;;;;;22.55;100.00;95756.66;5054326;28;20032;-79
2023/07/27 11:07:43;;;;;;;3.50;1.60;;;;;;;22.45;100.00;95760.00;5067487;28;20032;-80
2023/07/27 11:10:13;;;;;;;2.63;1.52;;;;;;;22.39;100.00;95762.84;5066146;28;20035;-80
2023/07/27 11:12:54;;;;;;;2.67;1.20;;;;;;;22.43;100.00;95748.69;5048360;28;20413;-80
2023/07/27 11:15:21;;;;;;;4.53;1.70;;;;;;;22.43;100.00;95751.38;5063739;28;20032;-80
2023/07/27 11:18:04;;;;;;;5.03;1.60;;;;;;;22.58;100.00;95750.81;5051287;28;20028;-80
2023/07/27 11:20:37;;;;;;;5.65;2.03;;;;;;;22.98;100.00;95742.50;5063625;28;20024;-80
2023/07/27 11:23:03;;;;;;;2.65;1.45;;;;;;;22.49;100.00;95730.84;5054975;28;20517;-81
2023/07/27 11:25:32;;;;;;;5.93;1.70;;;;;;;22.61;100.00;95720.84;5041337;28;20115;-83
2023/07/27 11:27:58;;;;;;;3.88;1.35;;;;;;;22.43;100.00;95713.88;5060784;28;20166;-81
2023/07/27 11:30:23;;;;;;;2.55;1.40;;;;;;;22.53;100.00;95703.28;5052921;28;20817;-81
2023/07/27 11:32:58;;;;;;;4.85;1.40;;;;;;;22.07;100.00;95701.81;5066310;28;20020;-81